sensor_id;sensor_type;location;lat;lon;timestamp;temperature;humidity
48043;DHT22;33988;47.992;8.820;2023-03-21T00:01:13;13.40;55.10
48043;DHT22;33988;47.992;8.820;2023-03-21T00:03:46;13.40;55.80
48043;DHT22;33988;47.992;8.820;2023-03-21T00:06:19;13.30;55.10
48043;DHT22;33988;47.992;8.820;2023-03-21T00:08:47;13.30;55.10
48043;DHT22;33988;47.992;8.820;2023-03-21T00:11:16;13.30;55.10
48043;DHT22;33988;47.992;8.820;2023-03-21T00:13:43;13.20;55.10
48043;DHT22;33988;47.992;8.820;2023-03-21T00:16:15;13.20;55.10
48043;DHT22;33988;47.992;8.820;2023-03-21T00:18:59;13.20;55.10
48043;DHT22;33988;47.992;8.820;2023-03-21T00:21:28;13.10;55.10
48043;DHT22;33988;47.992;8.820;2023-03-21T00:24:17;13.10;55.10
48043;DHT22;33988;47.992;8.820;2023-03-21T00:26:48;13.00;55.70
48043;DHT22;33988;47.992;8.820;2023-03-21T00:29:18;13.00;55.10
48043;DHT22;33988;47.992;8.820;2023-03-21T00:31:45;13.00;55.10
48043;DHT22;33988;47.992;8.820;2023-03-21T00:34:16;12.90;55.00
48043;DHT22;33988;47.992;8.820;2023-03-21T00:37:02;12.90;55.10
48043;DHT22;33988;47.992;8.820;2023-03-21T00:39:31;12.80;55.10
48043;DHT22;33988;47.992;8.820;2023-03-21T00:42:03;12.80;55.00
48043;DHT22;33988;47.992;8.820;2023-03-21T00:44:30;12.80;55.10
48043;DHT22;33988;47.992;8.820;2023-03-21T00:47:02;12.70;55.00
48043;DHT22;33988;47.992;8.820;2023-03-21T00:49:33;12.70;55.00
48043;DHT22;33988;47.992;8.820;2023-03-21T00:52:01;12.60;55.00
48043;DHT22;33988;47.992;8.820;2023-03-21T00:54:46;12.60;55.00
48043;DHT22;33988;47.992;8.820;2023-03-21T00:57:18;12.50;55.00
48043;DHT22;33988;47.992;8.820;2023-03-21T00:59:49;12.50;55.10
48043;DHT22;33988;47.992;8.820;2023-03-21T01:02:16;12.40;55.10
48043;DHT22;33988;47.992;8.820;2023-03-21T01:04:51;12.40;55.20
48043;DHT22;33988;47.992;8.820;2023-03-21T01:07:23;12.30;55.20
48043;DHT22;33988;47.992;8.820;2023-03-21T01:09:52;12.30;55.30
48043;DHT22;33988;47.992;8.820;2023-03-21T01:12:19;12.20;55.30
48043;DHT22;33988;47.992;8.820;2023-03-21T01:14:46;12.20;55.30
48043;DHT22;33988;47.992;8.820;2023-03-21T01:17:20;12.10;55.40
48043;DHT22;33988;47.992;8.820;2023-03-21T01:19:49;12.10;55.50
48043;DHT22;33988;47.992;8.820;2023-03-21T01:22:18;12.10;55.60
48043;DHT22;33988;47.992;8.820;2023-03-21T01:24:48;12.10;55.70
48043;DHT22;33988;47.992;8.820;2023-03-21T01:27:26;12.00;55.70
48043;DHT22;33988;47.992;8.820;2023-03-21T01:29:52;12.00;55.70
48043;DHT22;33988;47.992;8.820;2023-03-21T01:32:19;12.00;55.80
48043;DHT22;33988;47.992;8.820;2023-03-21T01:34:47;12.00;55.80
48043;DHT22;33988;47.992;8.820;2023-03-21T01:37:19;12.00;55.90
48043;DHT22;33988;47.992;8.820;2023-03-21T01:39:48;12.00;56.00
48043;DHT22;33988;47.992;8.820;2023-03-21T01:42:15;12.00;56.00
48043;DHT22;33988;47.992;8.820;2023-03-21T01:44:58;11.90;56.00
48043;DHT22;33988;47.992;8.820;2023-03-21T01:47:28;11.90;56.30
48043;DHT22;33988;47.992;8.820;2023-03-21T01:49:58;11.90;56.30
48043;DHT22;33988;47.992;8.820;2023-03-21T01:52:31;11.90;56.40
48043;DHT22;33988;47.992;8.820;2023-03-21T01:55:07;11.90;56.50
48043;DHT22;33988;47.992;8.820;2023-03-21T01:57:50;11.90;56.50
48043;DHT22;33988;47.992;8.820;2023-03-21T02:00:34;11.90;56.60
48043;DHT22;33988;47.992;8.820;2023-03-21T02:03:06;11.90;56.60
48043;DHT22;33988;47.992;8.820;2023-03-21T02:08:19;11.90;56.70
48043;DHT22;33988;47.992;8.820;2023-03-21T02:11:05;11.90;56.60
48043;DHT22;33988;47.992;8.820;2023-03-21T02:13:36;11.90;56.60
48043;DHT22;33988;47.992;8.820;2023-03-21T02:16:17;11.90;56.50
48043;DHT22;33988;47.992;8.820;2023-03-21T02:22:37;11.90;56.60
48043;DHT22;33988;47.992;8.820;2023-03-21T02:36:59;11.70;56.60
48043;DHT22;33988;47.992;8.820;2023-03-21T02:39:47;11.70;56.60
48043;DHT22;33988;47.992;8.820;2023-03-21T02:47:54;11.70;56.60
48043;DHT22;33988;47.992;8.820;2023-03-21T02:50:36;11.70;56.70
48043;DHT22;33988;47.992;8.820;2023-03-21T02:53:09;11.60;56.60
48043;DHT22;33988;47.992;8.820;2023-03-21T02:55:39;11.60;56.60
48043;DHT22;33988;47.992;8.820;2023-03-21T02:58:10;11.60;56.70
48043;DHT22;33988;47.992;8.820;2023-03-21T03:00:45;11.60;56.70
48043;DHT22;33988;47.992;8.820;2023-03-21T03:03:13;11.60;56.80
48043;DHT22;33988;47.992;8.820;2023-03-21T03:06:06;11.60;56.90
48043;DHT22;33988;47.992;8.820;2023-03-21T03:11:51;11.60;56.90
48043;DHT22;33988;47.992;8.820;2023-03-21T03:14:37;11.60;57.00
48043;DHT22;33988;47.992;8.820;2023-03-21T03:23:34;11.50;57.20
48043;DHT22;33988;47.992;8.820;2023-03-21T03:26:20;11.60;57.10
48043;DHT22;33988;47.992;8.820;2023-03-21T03:28:59;11.60;57.10
48043;DHT22;33988;47.992;8.820;2023-03-21T03:31:41;11.60;57.20
48043;DHT22;33988;47.992;8.820;2023-03-21T03:34:18;11.60;57.30
48043;DHT22;33988;47.992;8.820;2023-03-21T03:36:51;11.60;57.20
48043;DHT22;33988;47.992;8.820;2023-03-21T03:39:29;11.60;57.20
48043;DHT22;33988;47.992;8.820;2023-03-21T03:42:05;11.60;57.20
48043;DHT22;33988;47.992;8.820;2023-03-21T03:44:54;11.60;57.20
48043;DHT22;33988;47.992;8.820;2023-03-21T03:50:46;11.60;57.30
48043;DHT22;33988;47.992;8.820;2023-03-21T03:53:24;11.60;57.40
48043;DHT22;33988;47.992;8.820;2023-03-21T03:55:54;11.60;57.20
48043;DHT22;33988;47.992;8.820;2023-03-21T03:58:23;11.60;57.20
48043;DHT22;33988;47.992;8.820;2023-03-21T04:01:11;11.60;57.20
48043;DHT22;33988;47.992;8.820;2023-03-21T04:03:40;11.60;57.30
48043;DHT22;33988;47.992;8.820;2023-03-21T04:06:16;11.60;57.30
48043;DHT22;33988;47.992;8.820;2023-03-21T04:08:43;11.60;57.30
48043;DHT22;33988;47.992;8.820;2023-03-21T04:11:13;11.60;57.30
48043;DHT22;33988;47.992;8.820;2023-03-21T04:13:45;11.60;57.20
48043;DHT22;33988;47.992;8.820;2023-03-21T04:16:15;11.60;57.20
48043;DHT22;33988;47.992;8.820;2023-03-21T04:18:41;11.60;57.20
48043;DHT22;33988;47.992;8.820;2023-03-21T04:21:11;11.60;57.20
48043;DHT22;33988;47.992;8.820;2023-03-21T04:23:39;11.60;57.10
48043;DHT22;33988;47.992;8.820;2023-03-21T04:26:07;11.50;57.10
48043;DHT22;33988;47.992;8.820;2023-03-21T04:28:35;11.50;57.00
48043;DHT22;33988;47.992;8.820;2023-03-21T04:31:06;11.50;57.00
48043;DHT22;33988;47.992;8.820;2023-03-21T04:33:53;11.50;57.10
48043;DHT22;33988;47.992;8.820;2023-03-21T04:36:21;11.50;57.10
48043;DHT22;33988;47.992;8.820;2023-03-21T04:38:56;11.50;57.70
48043;DHT22;33988;47.992;8.820;2023-03-21T04:41:27;11.40;57.00
48043;DHT22;33988;47.992;8.820;2023-03-21T04:43:55;11.40;57.00
48043;DHT22;33988;47.992;8.820;2023-03-21T04:46:22;11.30;57.00
48043;DHT22;33988;47.992;8.820;2023-03-21T04:48:51;11.40;57.10
48043;DHT22;33988;47.992;8.820;2023-03-21T04:51:23;11.30;57.10
48043;DHT22;33988;47.992;8.820;2023-03-21T04:53:50;11.30;57.10
48043;DHT22;33988;47.992;8.820;2023-03-21T04:56:18;11.30;57.10
48043;DHT22;33988;47.992;8.820;2023-03-21T04:58:45;11.20;57.10
48043;DHT22;33988;47.992;8.820;2023-03-21T05:01:12;11.30;57.10
48043;DHT22;33988;47.992;8.820;2023-03-21T05:03:48;11.20;57.10
48043;DHT22;33988;47.992;8.820;2023-03-21T05:06:19;11.20;57.10
48043;DHT22;33988;47.992;8.820;2023-03-21T05:08:47;11.20;57.20
48043;DHT22;33988;47.992;8.820;2023-03-21T05:11:13;11.10;57.20
48043;DHT22;33988;47.992;8.820;2023-03-21T05:13:41;11.10;57.30
48043;DHT22;33988;47.992;8.820;2023-03-21T05:16:08;11.10;57.30
48043;DHT22;33988;47.992;8.820;2023-03-21T05:18:37;11.00;57.30
48043;DHT22;33988;47.992;8.820;2023-03-21T05:21:05;11.10;57.40
48043;DHT22;33988;47.992;8.820;2023-03-21T05:23:36;11.00;57.40
48043;DHT22;33988;47.992;8.820;2023-03-21T05:26:11;11.00;57.40
48043;DHT22;33988;47.992;8.820;2023-03-21T05:28:38;11.00;57.50
48043;DHT22;33988;47.992;8.820;2023-03-21T05:31:06;11.00;57.50
48043;DHT22;33988;47.992;8.820;2023-03-21T05:33:33;11.00;57.50
48043;DHT22;33988;47.992;8.820;2023-03-21T05:36:03;11.00;57.50
48043;DHT22;33988;47.992;8.820;2023-03-21T05:38:30;11.00;57.50
48043;DHT22;33988;47.992;8.820;2023-03-21T05:41:02;11.00;58.20
48043;DHT22;33988;47.992;8.820;2023-03-21T05:43:29;11.00;57.60
48043;DHT22;33988;47.992;8.820;2023-03-21T05:45:56;11.00;57.60
48043;DHT22;33988;47.992;8.820;2023-03-21T05:48:23;11.00;57.60
48043;DHT22;33988;47.992;8.820;2023-03-21T05:50:53;10.90;57.60
48043;DHT22;33988;47.992;8.820;2023-03-21T05:53:22;11.00;57.70
48043;DHT22;33988;47.992;8.820;2023-03-21T05:55:49;10.90;58.30
48043;DHT22;33988;47.992;8.820;2023-03-21T05:58:18;10.90;57.60
48043;DHT22;33988;47.992;8.820;2023-03-21T06:00:47;10.90;57.70
48043;DHT22;33988;47.992;8.820;2023-03-21T06:03:14;10.90;57.70
48043;DHT22;33988;47.992;8.820;2023-03-21T06:05:42;10.90;57.70
48043;DHT22;33988;47.992;8.820;2023-03-21T06:08:11;10.90;57.70
48043;DHT22;33988;47.992;8.820;2023-03-21T06:10:42;10.90;57.70
48043;DHT22;33988;47.992;8.820;2023-03-21T06:13:09;10.90;57.70
48043;DHT22;33988;47.992;8.820;2023-03-21T06:15:36;10.90;57.70
48043;DHT22;33988;47.992;8.820;2023-03-21T06:18:04;10.90;57.80
48043;DHT22;33988;47.992;8.820;2023-03-21T06:20:31;11.00;57.90
48043;DHT22;33988;47.992;8.820;2023-03-21T06:23:03;11.00;58.00
48043;DHT22;33988;47.992;8.820;2023-03-21T06:25:30;11.00;58.20
48043;DHT22;33988;47.992;8.820;2023-03-21T06:27:57;11.00;58.20
48043;DHT22;33988;47.992;8.820;2023-03-21T06:30:29;11.10;58.30
48043;DHT22;33988;47.992;8.820;2023-03-21T06:32:59;11.10;58.40
48043;DHT22;33988;47.992;8.820;2023-03-21T06:35:28;11.20;58.40
48043;DHT22;33988;47.992;8.820;2023-03-21T06:37:57;11.20;58.40
48043;DHT22;33988;47.992;8.820;2023-03-21T06:40:25;11.30;58.40
48043;DHT22;33988;47.992;8.820;2023-03-21T06:42:54;11.40;58.40
48043;DHT22;33988;47.992;8.820;2023-03-21T06:45:23;11.40;58.40
48043;DHT22;33988;47.992;8.820;2023-03-21T06:47:51;11.40;58.40
48043;DHT22;33988;47.992;8.820;2023-03-21T06:50:20;11.50;58.40
48043;DHT22;33988;47.992;8.820;2023-03-21T06:52:47;11.50;58.40
48043;DHT22;33988;47.992;8.820;2023-03-21T06:55:14;11.60;58.40
48043;DHT22;33988;47.992;8.820;2023-03-21T06:57:41;11.70;58.40
48043;DHT22;33988;47.992;8.820;2023-03-21T07:00:09;11.80;58.50
48043;DHT22;33988;47.992;8.820;2023-03-21T07:02:37;11.80;58.50
48043;DHT22;33988;47.992;8.820;2023-03-21T07:05:08;11.90;58.50
48043;DHT22;33988;47.992;8.820;2023-03-21T07:07:41;12.00;58.60
48043;DHT22;33988;47.992;8.820;2023-03-21T07:10:08;12.10;58.70
48043;DHT22;33988;47.992;8.820;2023-03-21T07:12:36;12.20;58.70
48043;DHT22;33988;47.992;8.820;2023-03-21T07:15:04;12.30;58.90
48043;DHT22;33988;47.992;8.820;2023-03-21T07:17:32;12.50;58.90
48043;DHT22;33988;47.992;8.820;2023-03-21T07:20:01;12.60;58.60
48043;DHT22;33988;47.992;8.820;2023-03-21T07:22:33;12.70;58.40
48043;DHT22;33988;47.992;8.820;2023-03-21T07:25:04;12.80;58.10
48043;DHT22;33988;47.992;8.820;2023-03-21T07:27:31;12.90;57.90
48043;DHT22;33988;47.992;8.820;2023-03-21T07:29:58;13.00;57.70
48043;DHT22;33988;47.992;8.820;2023-03-21T07:32:33;13.10;57.60
48043;DHT22;33988;47.992;8.820;2023-03-21T07:35:13;13.20;57.60
48043;DHT22;33988;47.992;8.820;2023-03-21T07:37:43;13.30;57.60
48043;DHT22;33988;47.992;8.820;2023-03-21T07:40:13;13.40;57.50
48043;DHT22;33988;47.992;8.820;2023-03-21T07:42:43;13.50;57.50
48043;DHT22;33988;47.992;8.820;2023-03-21T07:45:10;13.60;57.50
48043;DHT22;33988;47.992;8.820;2023-03-21T07:47:43;13.70;57.50
48043;DHT22;33988;47.992;8.820;2023-03-21T07:50:16;13.90;57.60
48043;DHT22;33988;47.992;8.820;2023-03-21T07:52:44;14.00;57.50
48043;DHT22;33988;47.992;8.820;2023-03-21T07:55:12;14.20;57.50
48043;DHT22;33988;47.992;8.820;2023-03-21T07:57:43;14.40;57.40
48043;DHT22;33988;47.992;8.820;2023-03-21T08:00:13;14.50;57.20
48043;DHT22;33988;47.992;8.820;2023-03-21T08:02:52;14.70;56.90
48043;DHT22;33988;47.992;8.820;2023-03-21T08:05:32;14.90;56.80
48043;DHT22;33988;47.992;8.820;2023-03-21T08:08:00;15.20;57.00
48043;DHT22;33988;47.992;8.820;2023-03-21T08:10:29;15.50;57.20
48043;DHT22;33988;47.992;8.820;2023-03-21T08:12:56;15.80;57.30
48043;DHT22;33988;47.992;8.820;2023-03-21T08:15:26;16.20;57.20
48043;DHT22;33988;47.992;8.820;2023-03-21T08:17:53;16.70;56.80
48043;DHT22;33988;47.992;8.820;2023-03-21T08:20:25;17.10;56.40
48043;DHT22;33988;47.992;8.820;2023-03-21T08:22:53;17.60;55.60
48043;DHT22;33988;47.992;8.820;2023-03-21T08:25:24;18.10;55.20
48043;DHT22;33988;47.992;8.820;2023-03-21T08:27:52;18.60;54.50
48043;DHT22;33988;47.992;8.820;2023-03-21T08:30:23;19.10;53.70
48043;DHT22;33988;47.992;8.820;2023-03-21T08:32:57;19.50;52.90
48043;DHT22;33988;47.992;8.820;2023-03-21T08:35:28;20.00;52.10
48043;DHT22;33988;47.992;8.820;2023-03-21T08:37:55;20.40;51.40
48043;DHT22;33988;47.992;8.820;2023-03-21T08:40:22;20.70;50.60
48043;DHT22;33988;47.992;8.820;2023-03-21T08:42:49;21.00;49.60
48043;DHT22;33988;47.992;8.820;2023-03-21T08:45:16;21.20;48.80
48043;DHT22;33988;47.992;8.820;2023-03-21T08:47:45;21.40;48.30
48043;DHT22;33988;47.992;8.820;2023-03-21T08:50:16;21.60;47.60
48043;DHT22;33988;47.992;8.820;2023-03-21T08:52:44;21.70;47.70
48043;DHT22;33988;47.992;8.820;2023-03-21T08:55:14;21.80;46.80
48043;DHT22;33988;47.992;8.820;2023-03-21T08:57:42;21.90;45.90
48043;DHT22;33988;47.992;8.820;2023-03-21T09:00:12;22.00;45.20
48043;DHT22;33988;47.992;8.820;2023-03-21T09:02:41;22.00;45.00
48043;DHT22;33988;47.992;8.820;2023-03-21T09:05:12;22.00;45.10
48043;DHT22;33988;47.992;8.820;2023-03-21T09:07:40;22.10;45.10
48043;DHT22;33988;47.992;8.820;2023-03-21T09:10:10;22.20;44.80
48043;DHT22;33988;47.992;8.820;2023-03-21T09:12:51;22.20;44.30
48043;DHT22;33988;47.992;8.820;2023-03-21T09:15:21;22.20;44.30
48043;DHT22;33988;47.992;8.820;2023-03-21T09:17:51;22.20;44.20
48043;DHT22;33988;47.992;8.820;2023-03-21T09:20:22;22.20;43.80
48043;DHT22;33988;47.992;8.820;2023-03-21T09:22:58;22.20;43.50
48043;DHT22;33988;47.992;8.820;2023-03-21T09:25:27;22.10;43.50
48043;DHT22;33988;47.992;8.820;2023-03-21T09:27:59;22.10;43.50
48043;DHT22;33988;47.992;8.820;2023-03-21T09:30:26;22.00;43.60
48043;DHT22;33988;47.992;8.820;2023-03-21T09:32:54;22.00;43.50
48043;DHT22;33988;47.992;8.820;2023-03-21T09:35:27;22.00;43.30
48043;DHT22;33988;47.992;8.820;2023-03-21T09:37:55;21.90;43.10
48043;DHT22;33988;47.992;8.820;2023-03-21T09:41:03;21.80;43.10
48043;DHT22;33988;47.992;8.820;2023-03-21T09:49:45;21.50;42.90
48043;DHT22;33988;47.992;8.820;2023-03-21T09:55:32;21.40;43.60
48043;DHT22;33988;47.992;8.820;2023-03-21T10:00:50;21.30;43.50
48043;DHT22;33988;47.992;8.820;2023-03-21T10:03:28;21.20;43.40
48043;DHT22;33988;47.992;8.820;2023-03-21T10:06:03;21.10;43.50
48043;DHT22;33988;47.992;8.820;2023-03-21T10:08:39;21.00;43.40
48043;DHT22;33988;47.992;8.820;2023-03-21T10:11:18;21.00;43.30
48043;DHT22;33988;47.992;8.820;2023-03-21T10:14:01;20.90;43.20
48043;DHT22;33988;47.992;8.820;2023-03-21T10:16:56;20.80;43.10
48043;DHT22;33988;47.992;8.820;2023-03-21T10:19:31;20.70;43.50
48043;DHT22;33988;47.992;8.820;2023-03-21T10:22:02;20.60;43.70
48043;DHT22;33988;47.992;8.820;2023-03-21T10:24:34;20.60;43.50
48043;DHT22;33988;47.992;8.820;2023-03-21T10:27:03;20.50;43.40
48043;DHT22;33988;47.992;8.820;2023-03-21T10:29:38;20.50;43.50
48043;DHT22;33988;47.992;8.820;2023-03-21T10:32:14;20.40;43.60
48043;DHT22;33988;47.992;8.820;2023-03-21T10:34:50;20.40;43.60
48043;DHT22;33988;47.992;8.820;2023-03-21T10:37:22;20.30;43.80
48043;DHT22;33988;47.992;8.820;2023-03-21T10:39:54;20.20;44.10
48043;DHT22;33988;47.992;8.820;2023-03-21T10:42:27;20.20;44.10
48043;DHT22;33988;47.992;8.820;2023-03-21T10:44:57;20.20;44.10
48043;DHT22;33988;47.992;8.820;2023-03-21T10:47:32;20.10;43.90
48043;DHT22;33988;47.992;8.820;2023-03-21T10:50:05;20.00;43.60
48043;DHT22;33988;47.992;8.820;2023-03-21T10:52:55;19.90;43.90
48043;DHT22;33988;47.992;8.820;2023-03-21T10:55:29;19.80;43.80
48043;DHT22;33988;47.992;8.820;2023-03-21T10:58:19;19.80;44.00
48043;DHT22;33988;47.992;8.820;2023-03-21T11:00:54;19.70;44.50
48043;DHT22;33988;47.992;8.820;2023-03-21T11:03:35;19.70;44.30
48043;DHT22;33988;47.992;8.820;2023-03-21T11:06:16;19.60;44.20
48043;DHT22;33988;47.992;8.820;2023-03-21T11:08:53;19.60;44.10
48043;DHT22;33988;47.992;8.820;2023-03-21T11:11:37;19.60;44.00
48043;DHT22;33988;47.992;8.820;2023-03-21T11:14:12;19.50;44.20
48043;DHT22;33988;47.992;8.820;2023-03-21T11:16:51;19.50;44.50
48043;DHT22;33988;47.992;8.820;2023-03-21T11:19:30;19.40;44.50
48043;DHT22;33988;47.992;8.820;2023-03-21T11:22:04;19.40;44.60
48043;DHT22;33988;47.992;8.820;2023-03-21T11:24:32;19.40;44.50
48043;DHT22;33988;47.992;8.820;2023-03-21T11:27:05;19.40;44.60
48043;DHT22;33988;47.992;8.820;2023-03-21T11:29:38;19.40;44.80
48043;DHT22;33988;47.992;8.820;2023-03-21T11:35:14;19.30;44.60
48043;DHT22;33988;47.992;8.820;2023-03-21T11:37:53;19.30;44.80
48043;DHT22;33988;47.992;8.820;2023-03-21T11:40:29;19.30;44.50
48043;DHT22;33988;47.992;8.820;2023-03-21T11:43:00;19.30;44.70
48043;DHT22;33988;47.992;8.820;2023-03-21T11:45:30;19.30;44.80
48043;DHT22;33988;47.992;8.820;2023-03-21T11:48:01;19.40;44.80
48043;DHT22;33988;47.992;8.820;2023-03-21T11:50:44;19.40;44.80
48043;DHT22;33988;47.992;8.820;2023-03-21T11:56:30;19.50;44.40
48043;DHT22;33988;47.992;8.820;2023-03-21T12:02:14;19.50;44.20
48043;DHT22;33988;47.992;8.820;2023-03-21T12:05:25;19.50;44.20
48043;DHT22;33988;47.992;8.820;2023-03-21T12:22:03;19.70;43.30
48043;DHT22;33988;47.992;8.820;2023-03-21T12:24:59;19.70;43.40
48043;DHT22;33988;47.992;8.820;2023-03-21T12:27:47;19.80;43.70
48043;DHT22;33988;47.992;8.820;2023-03-21T12:30:50;19.80;43.70
48043;DHT22;33988;47.992;8.820;2023-03-21T12:34:16;19.80;42.90
48043;DHT22;33988;47.992;8.820;2023-03-21T12:37:35;19.80;42.40
48043;DHT22;33988;47.992;8.820;2023-03-21T12:40:34;19.90;42.50
48043;DHT22;33988;47.992;8.820;2023-03-21T12:51:38;20.00;42.60
48043;DHT22;33988;47.992;8.820;2023-03-21T12:54:27;20.10;42.60
48043;DHT22;33988;47.992;8.820;2023-03-21T12:59:35;20.20;42.60
48043;DHT22;33988;47.992;8.820;2023-03-21T13:10:57;20.00;42.90
48043;DHT22;33988;47.992;8.820;2023-03-21T13:19:20;20.30;42.60
48043;DHT22;33988;47.992;8.820;2023-03-21T13:22:14;20.30;42.30
48043;DHT22;33988;47.992;8.820;2023-03-21T13:25:15;20.30;42.60
48043;DHT22;33988;47.992;8.820;2023-03-21T13:27:54;20.30;42.30
48043;DHT22;33988;47.992;8.820;2023-03-21T13:30:28;20.30;42.30
48043;DHT22;33988;47.992;8.820;2023-03-21T13:33:12;20.30;42.50
48043;DHT22;33988;47.992;8.820;2023-03-21T13:35:42;20.30;42.30
48043;DHT22;33988;47.992;8.820;2023-03-21T13:38:25;20.30;42.50
48043;DHT22;33988;47.992;8.820;2023-03-21T13:41:12;20.30;42.30
48043;DHT22;33988;47.992;8.820;2023-03-21T13:43:52;20.20;42.00
48043;DHT22;33988;47.992;8.820;2023-03-21T13:46:35;20.30;42.30
48043;DHT22;33988;47.992;8.820;2023-03-21T13:54:52;20.20;42.60
48043;DHT22;33988;47.992;8.820;2023-03-21T14:02:57;20.10;42.60
48043;DHT22;33988;47.992;8.820;2023-03-21T14:05:29;20.10;42.80
48043;DHT22;33988;47.992;8.820;2023-03-21T14:08:03;20.10;42.90
48043;DHT22;33988;47.992;8.820;2023-03-21T14:10:46;20.20;43.10
48043;DHT22;33988;47.992;8.820;2023-03-21T14:13:18;20.20;43.20
48043;DHT22;33988;47.992;8.820;2023-03-21T14:15:52;20.20;43.00
48043;DHT22;33988;47.992;8.820;2023-03-21T14:18:28;20.20;42.70
48043;DHT22;33988;47.992;8.820;2023-03-21T14:21:20;20.20;42.60
48043;DHT22;33988;47.992;8.820;2023-03-21T14:23:57;20.10;42.70
48043;DHT22;33988;47.992;8.820;2023-03-21T14:26:32;20.10;43.20
48043;DHT22;33988;47.992;8.820;2023-03-21T14:29:07;20.00;43.20
48043;DHT22;33988;47.992;8.820;2023-03-21T14:31:54;20.00;43.40
48043;DHT22;33988;47.992;8.820;2023-03-21T14:34:24;20.00;43.40
48043;DHT22;33988;47.992;8.820;2023-03-21T14:36:52;20.00;43.50
48043;DHT22;33988;47.992;8.820;2023-03-21T14:39:32;19.90;43.40
48043;DHT22;33988;47.992;8.820;2023-03-21T14:42:09;19.90;43.30
48043;DHT22;33988;47.992;8.820;2023-03-21T14:44:41;19.90;43.30
48043;DHT22;33988;47.992;8.820;2023-03-21T14:47:26;19.90;43.30
48043;DHT22;33988;47.992;8.820;2023-03-21T14:50:00;19.80;43.20
48043;DHT22;33988;47.992;8.820;2023-03-21T14:52:31;19.70;43.50
48043;DHT22;33988;47.992;8.820;2023-03-21T14:54:59;19.60;43.60
48043;DHT22;33988;47.992;8.820;2023-03-21T14:57:33;19.60;43.70
48043;DHT22;33988;47.992;8.820;2023-03-21T15:00:04;19.60;43.80
48043;DHT22;33988;47.992;8.820;2023-03-21T15:02:40;19.50;43.90
48043;DHT22;33988;47.992;8.820;2023-03-21T15:05:32;19.50;44.00
48043;DHT22;33988;47.992;8.820;2023-03-21T15:08:02;19.50;44.00
48043;DHT22;33988;47.992;8.820;2023-03-21T15:10:32;19.40;44.20
48043;DHT22;33988;47.992;8.820;2023-03-21T15:13:09;19.40;44.40
48043;DHT22;33988;47.992;8.820;2023-03-21T15:15:42;19.40;44.50
48043;DHT22;33988;47.992;8.820;2023-03-21T15:18:13;19.40;44.70
48043;DHT22;33988;47.992;8.820;2023-03-21T15:20:48;19.40;44.60
48043;DHT22;33988;47.992;8.820;2023-03-21T15:23:35;19.40;44.70
48043;DHT22;33988;47.992;8.820;2023-03-21T15:26:11;19.40;44.60
48043;DHT22;33988;47.992;8.820;2023-03-21T15:28:44;19.40;44.60
48043;DHT22;33988;47.992;8.820;2023-03-21T15:31:16;19.40;44.60
48043;DHT22;33988;47.992;8.820;2023-03-21T15:33:47;19.40;44.60
48043;DHT22;33988;47.992;8.820;2023-03-21T15:36:20;19.40;44.70
48043;DHT22;33988;47.992;8.820;2023-03-21T15:39:12;19.40;44.90
48043;DHT22;33988;47.992;8.820;2023-03-21T15:41:58;19.40;44.80
48043;DHT22;33988;47.992;8.820;2023-03-21T15:44:34;19.40;44.80
48043;DHT22;33988;47.992;8.820;2023-03-21T15:47:03;19.40;44.90
48043;DHT22;33988;47.992;8.820;2023-03-21T15:49:32;19.40;44.90
48043;DHT22;33988;47.992;8.820;2023-03-21T15:52:12;19.40;44.80
48043;DHT22;33988;47.992;8.820;2023-03-21T15:57:28;19.40;45.00
48043;DHT22;33988;47.992;8.820;2023-03-21T16:00:21;19.30;44.80
48043;DHT22;33988;47.992;8.820;2023-03-21T16:02:57;19.30;44.90
48043;DHT22;33988;47.992;8.820;2023-03-21T16:05:32;19.30;44.90
48043;DHT22;33988;47.992;8.820;2023-03-21T16:10:47;19.30;45.20
48043;DHT22;33988;47.992;8.820;2023-03-21T16:13:16;19.30;45.20
48043;DHT22;33988;47.992;8.820;2023-03-21T16:15:45;19.30;45.10
48043;DHT22;33988;47.992;8.820;2023-03-21T16:18:17;19.30;45.30
48043;DHT22;33988;47.992;8.820;2023-03-21T16:20:47;19.30;45.30
48043;DHT22;33988;47.992;8.820;2023-03-21T16:23:15;19.20;45.20
48043;DHT22;33988;47.992;8.820;2023-03-21T16:25:43;19.20;45.20
48043;DHT22;33988;47.992;8.820;2023-03-21T16:28:15;19.20;45.40
48043;DHT22;33988;47.992;8.820;2023-03-21T16:30:43;19.10;45.40
48043;DHT22;33988;47.992;8.820;2023-03-21T16:33:11;19.10;45.30
48043;DHT22;33988;47.992;8.820;2023-03-21T16:35:39;19.10;45.30
48043;DHT22;33988;47.992;8.820;2023-03-21T16:38:11;19.10;45.30
48043;DHT22;33988;47.992;8.820;2023-03-21T16:40:41;19.00;45.30
48043;DHT22;33988;47.992;8.820;2023-03-21T16:43:09;19.00;45.40
48043;DHT22;33988;47.992;8.820;2023-03-21T16:45:37;18.90;45.50
48043;DHT22;33988;47.992;8.820;2023-03-21T16:48:08;18.90;45.60
48043;DHT22;33988;47.992;8.820;2023-03-21T16:50:46;18.90;45.80
48043;DHT22;33988;47.992;8.820;2023-03-21T16:53:18;18.90;45.80
48043;DHT22;33988;47.992;8.820;2023-03-21T16:55:45;18.90;45.70
48043;DHT22;33988;47.992;8.820;2023-03-21T16:58:17;18.90;45.80
48043;DHT22;33988;47.992;8.820;2023-03-21T17:00:49;18.80;45.90
48043;DHT22;33988;47.992;8.820;2023-03-21T17:03:18;18.90;46.00
48043;DHT22;33988;47.992;8.820;2023-03-21T17:05:49;18.90;46.00
48043;DHT22;33988;47.992;8.820;2023-03-21T17:08:23;18.80;46.00
48043;DHT22;33988;47.992;8.820;2023-03-21T17:10:54;18.80;46.00
48043;DHT22;33988;47.992;8.820;2023-03-21T17:13:21;18.80;46.10
48043;DHT22;33988;47.992;8.820;2023-03-21T17:15:48;18.80;46.10
48043;DHT22;33988;47.992;8.820;2023-03-21T17:18:15;18.80;46.20
48043;DHT22;33988;47.992;8.820;2023-03-21T17:20:42;18.80;46.30
48043;DHT22;33988;47.992;8.820;2023-03-21T17:23:11;18.80;46.50
48043;DHT22;33988;47.992;8.820;2023-03-21T17:25:40;18.80;46.60
48043;DHT22;33988;47.992;8.820;2023-03-21T17:28:07;18.70;46.70
48043;DHT22;33988;47.992;8.820;2023-03-21T17:30:39;18.70;46.80
48043;DHT22;33988;47.992;8.820;2023-03-21T17:33:07;18.70;46.90
48043;DHT22;33988;47.992;8.820;2023-03-21T17:35:34;18.70;47.00
48043;DHT22;33988;47.992;8.820;2023-03-21T17:38:03;18.60;47.10
48043;DHT22;33988;47.992;8.820;2023-03-21T17:40:31;18.60;47.30
48043;DHT22;33988;47.992;8.820;2023-03-21T17:42:58;18.60;47.40
48043;DHT22;33988;47.992;8.820;2023-03-21T17:45:27;18.60;47.70
48043;DHT22;33988;47.992;8.820;2023-03-21T17:47:54;18.50;47.70
48043;DHT22;33988;47.992;8.820;2023-03-21T17:50:26;18.50;47.70
48043;DHT22;33988;47.992;8.820;2023-03-21T17:52:57;18.50;47.80
48043;DHT22;33988;47.992;8.820;2023-03-21T17:55:29;18.40;47.90
48043;DHT22;33988;47.992;8.820;2023-03-21T17:57:56;18.40;48.00
48043;DHT22;33988;47.992;8.820;2023-03-21T18:00:25;18.30;48.00
48043;DHT22;33988;47.992;8.820;2023-03-21T18:02:57;18.30;48.10